Time;durP1;ratioP1;P1;durP2;ratioP2;P2;SDS_P1;SDS_P2;PMS_P1;PMS_P2;Temp;Humidity;BMP_temperature;BMP_pressure;BME280_temperature;BME280_humidity;BME280_pressure;Samples;Min_cycle;Max_cycle;Signal;HPM_P1;HPM_P2
2023/12/03 00:00:46;;;;;;;3.78;2.63;;;17.70;56.40;;;;;;6123415;23;20156;-82
2023/12/03 00:03:34;;;;;;;4.18;2.80;;;17.70;56.60;;;;;;6055828;23;20157;-83
2023/12/03 00:06:24;;;;;;;4.57;2.60;;;17.70;56.60;;;;;;6040086;23;20620;-82
2023/12/03 00:09:25;;;;;;;3.90;2.60;;;17.70;56.50;;;;;;5951357;24;20758;-82
2023/12/03 00:12:25;;;;;;;3.50;2.55;;;17.70;56.60;;;;;;6105646;23;20207;-82
2023/12/03 00:20:51;;;;;;;3.20;2.42;;;17.70;56.50;;;;;;6130507;23;20204;-82
2023/12/03 00:27:18;;;;;;;3.78;2.60;;;17.60;56.60;;;;;;6139600;23;20291;-82
2023/12/03 00:39:28;;;;;;;3.72;2.60;;;17.60;56.50;;;;;;6037426;23;20181;-82
2023/12/03 00:42:23;;;;;;;3.33;2.30;;;17.60;56.60;;;;;;6085639;23;20220;-83
2023/12/03 00:44:59;;;;;;;3.35;2.53;;;17.60;56.70;;;;;;5964263;23;20169;-82
2023/12/03 00:47:34;;;;;;;3.15;2.40;;;17.60;56.70;;;;;;5902078;24;20157;-82
2023/12/03 00:50:43;;;;;;;4.32;2.63;;;17.60;56.80;;;;;;5901685;24;20199;-81
2023/12/03 00:53:12;;;;;;;2.97;2.17;;;17.60;56.50;;;;;;5842946;24;20167;-82
2023/12/03 00:55:45;;;;;;;4.10;2.45;;;17.60;56.70;;;;;;5764778;24;20203;-82
2023/12/03 00:58:27;;;;;;;4.25;2.80;;;17.60;56.70;;;;;;5981262;23;20345;-81
2023/12/03 01:01:26;;;;;;;3.20;2.25;;;17.60;56.80;;;;;;6126597;23;20159;-81
2023/12/03 01:06:55;;;;;;;4.22;2.80;;;17.50;56.80;;;;;;6148281;23;20199;-82
2023/12/03 01:09:23;;;;;;;3.80;2.70;;;17.50;56.80;;;;;;6110836;23;20648;-82
2023/12/03 01:11:55;;;;;;;4.07;2.53;;;17.50;56.70;;;;;;6068379;23;20251;-82
2023/12/03 01:14:41;;;;;;;4.38;2.20;;;17.50;56.80;;;;;;6018785;23;20149;-82
2023/12/03 01:17:34;;;;;;;3.38;2.60;;;17.50;56.70;;;;;;6063805;23;20204;-82
2023/12/03 01:23:08;;;;;;;4.65;2.50;;;17.50;56.90;;;;;;6179374;23;20345;-83
2023/12/03 01:25:51;;;;;;;3.33;2.30;;;17.50;56.70;;;;;;6144568;23;20206;-82
2023/12/03 01:28:20;;;;;;;5.05;2.60;;;17.50;56.90;;;;;;6045575;23;20167;-80
2023/12/03 01:30:55;;;;;;;3.55;2.63;;;17.50;56.50;;;;;;6092510;23;20523;-82
2023/12/03 01:33:24;;;;;;;3.60;2.30;;;17.60;56.80;;;;;;6016535;23;20153;-82
2023/12/03 01:36:08;;;;;;;4.30;2.58;;;17.50;56.70;;;;;;6040753;23;20155;-82
2023/12/03 01:39:02;;;;;;;4.10;2.35;;;17.50;56.70;;;;;;6013774;23;20154;-82
2023/12/03 01:41:44;;;;;;;3.67;2.58;;;17.50;56.80;;;;;;6036892;23;20166;-82
2023/12/03 01:44:14;;;;;;;3.35;2.42;;;17.50;56.80;;;;;;6035878;23;20893;-82
2023/12/03 01:46:50;;;;;;;3.40;2.35;;;17.50;56.70;;;;;;6036095;23;20138;-82
2023/12/03 01:49:25;;;;;;;3.55;2.70;;;17.40;56.90;;;;;;6029429;23;20625;-82
2023/12/03 01:54:17;;;;;;;4.80;2.70;;;17.50;56.80;;;;;;6183214;23;20597;-82
2023/12/03 01:56:48;;;;;;;2.95;2.22;;;17.50;56.90;;;;;;6093022;23;20227;-82
2023/12/03 01:59:23;;;;;;;5.63;2.60;;;17.50;56.90;;;;;;6034063;23;20157;-82
2023/12/03 02:01:51;;;;;;;4.22;2.28;;;17.40;56.90;;;;;;5988244;23;20501;-82
2023/12/03 02:04:23;;;;;;;3.50;2.42;;;17.40;57.10;;;;;;6097587;23;20203;-81
2023/12/03 02:07:10;;;;;;;3.10;2.38;;;17.50;57.10;;;;;;6102617;23;20159;-82
2023/12/03 02:10:06;;;;;;;4.32;2.58;;;17.40;57.00;;;;;;6015366;23;20161;-82
2023/12/03 02:15:10;;;;;;;3.83;2.50;;;17.40;56.90;;;;;;6143294;23;20214;-82
2023/12/03 02:17:47;;;;;;;5.60;2.50;;;17.40;56.70;;;;;;6153155;23;20151;-82
2023/12/03 02:20:36;;;;;;;3.42;2.20;;;17.40;56.90;;;;;;6124873;23;20159;-82
2023/12/03 02:23:10;;;;;;;3.97;2.45;;;17.40;56.80;;;;;;6126092;23;20147;-82
2023/12/03 02:25:39;;;;;;;4.55;2.70;;;17.40;56.90;;;;;;6061596;23;20153;-82
2023/12/03 02:30:44;;;;;;;2.38;2.17;;;17.40;56.90;;;;;;6153561;23;20538;-83
2023/12/03 02:33:28;;;;;;;3.03;2.58;;;17.40;57.10;;;;;;6127771;23;20159;-83
2023/12/03 02:38:20;;;;;;;3.53;2.45;;;17.40;56.80;;;;;;6149813;23;20210;-81
2023/12/03 02:43:30;;;;;;;3.40;2.50;;;17.40;57.10;;;;;;6149165;23;20222;-82
2023/12/03 02:45:59;;;;;;;2.83;2.28;;;17.40;56.90;;;;;;6128029;23;20151;-81
2023/12/03 02:48:27;;;;;;;3.47;2.45;;;17.40;56.90;;;;;;6127030;23;20206;-82
2023/12/03 02:51:04;;;;;;;5.97;2.40;;;17.40;56.70;;;;;;6034405;23;20204;-83
2023/12/03 02:53:56;;;;;;;4.68;2.58;;;17.40;56.90;;;;;;5954512;24;20215;-81
2023/12/03 02:56:22;;;;;;;5.03;2.60;;;17.40;57.00;;;;;;5954312;24;20156;-82
2023/12/03 02:58:52;;;;;;;3.05;2.30;;;17.40;56.90;;;;;;5979819;24;20189;-82
2023/12/03 03:04:02;;;;;;;3.97;2.20;;;17.40;56.90;;;;;;6170231;23;20202;-83
2023/12/03 03:06:31;;;;;;;3.88;2.50;;;17.40;57.10;;;;;;6183121;23;20154;-82
2023/12/03 03:09:07;;;;;;;3.80;2.60;;;17.40;57.00;;;;;;6181493;23;20131;-82
2023/12/03 03:11:57;;;;;;;2.85;2.33;;;17.40;57.00;;;;;;6181950;23;20173;-81
2023/12/03 03:14:34;;;;;;;3.63;2.78;;;17.40;57.00;;;;;;6135224;23;20154;-81
2023/12/03 03:17:05;;;;;;;3.65;2.58;;;17.40;57.00;;;;;;6125545;23;20182;-82
2023/12/03 03:19:51;;;;;;;3.90;2.42;;;17.30;57.10;;;;;;6126050;23;20282;-82
2023/12/03 03:22:20;;;;;;;3.42;2.50;;;17.40;56.90;;;;;;6127077;23;20147;-82
2023/12/03 03:24:49;;;;;;;3.97;2.53;;;17.40;57.00;;;;;;6127370;23;20238;-83
2023/12/03 03:27:18;;;;;;;3.30;2.22;;;17.30;56.80;;;;;;6126428;23;20235;-82
2023/12/03 03:29:50;;;;;;;5.07;2.60;;;17.40;57.00;;;;;;6039590;23;20261;-82
2023/12/03 03:32:25;;;;;;;3.65;2.67;;;17.30;57.00;;;;;;6038563;23;20640;-83
2023/12/03 03:34:52;;;;;;;3.28;2.28;;;17.30;57.10;;;;;;5977968;24;20177;-82
2023/12/03 03:37:33;;;;;;;3.55;2.50;;;17.30;57.10;;;;;;5898666;24;20161;-82
2023/12/03 03:39:59;;;;;;;3.35;2.30;;;17.30;57.10;;;;;;5900369;24;20161;-81
2023/12/03 03:42:43;;;;;;;2.65;2.20;;;17.30;56.90;;;;;;5990823;23;20217;-83
2023/12/03 03:45:12;;;;;;;3.72;2.33;;;17.40;57.10;;;;;;6155907;23;20155;-83
2023/12/03 03:50:35;;;;;;;3.75;2.58;;;17.30;57.10;;;;;;6095143;23;20192;-82
2023/12/03 03:53:04;;;;;;;2.85;2.47;;;17.30;56.90;;;;;;6047303;23;20153;-82
2023/12/03 03:55:34;;;;;;;3.30;2.30;;;17.40;57.10;;;;;;6040098;23;20160;-81
2023/12/03 03:58:03;;;;;;;3.85;2.60;;;17.30;56.90;;;;;;6040683;23;20573;-82
2023/12/03 04:00:32;;;;;;;4.05;2.40;;;17.40;57.00;;;;;;6039932;23;20165;-82
2023/12/03 04:03:04;;;;;;;4.38;2.30;;;17.30;57.00;;;;;;6039813;23;20162;-83
2023/12/03 04:05:30;;;;;;;2.70;2.00;;;17.40;57.00;;;;;;5984261;23;20162;-81
2023/12/03 04:08:09;;;;;;;4.35;2.70;;;17.30;57.00;;;;;;6039559;23;20207;-81
2023/12/03 04:10:42;;;;;;;3.58;2.55;;;17.30;57.00;;;;;;6120317;23;20207;-81
2023/12/03 04:13:08;;;;;;;3.92;2.50;;;17.30;57.00;;;;;;6076524;23;20198;-82
2023/12/03 04:15:36;;;;;;;2.60;2.22;;;17.30;57.00;;;;;;6075149;23;20572;-81
2023/12/03 04:18:12;;;;;;;3.45;2.45;;;17.30;57.00;;;;;;6075546;23;20156;-82
2023/12/03 04:20:40;;;;;;;3.42;2.30;;;17.30;56.90;;;;;;6101550;23;20215;-81
2023/12/03 04:23:09;;;;;;;3.60;2.35;;;17.30;57.00;;;;;;6068047;23;20156;-82
2023/12/03 04:25:48;;;;;;;;;;;;;;;;;;;;;
2023/12/03 04:31:11;;;;;;;2.63;2.10;;;17.30;57.10;;;;;;6154114;23;20211;-81
2023/12/03 04:33:42;;;;;;;3.13;2.50;;;17.30;57.10;;;;;;6019094;23;20232;-82
2023/12/03 04:36:12;;;;;;;3.78;2.50;;;17.30;57.10;;;;;;5995850;23;20149;-82
2023/12/03 04:38:40;;;;;;;2.95;2.38;;;17.30;57.10;;;;;;5990838;23;20227;-82
2023/12/03 04:41:12;;;;;;;3.20;2.30;;;17.30;56.90;;;;;;6014601;23;20542;-82
2023/12/03 04:43:43;;;;;;;4.15;2.60;;;17.30;57.00;;;;;;6014060;23;20156;-82
2023/12/03 04:46:18;;;;;;;4.03;2.42;;;17.30;56.80;;;;;;6012963;23;20154;-82
2023/12/03 04:48:44;;;;;;;3.05;2.42;;;17.30;56.90;;;;;;6013158;23;20162;-82
2023/12/03 04:53:41;;;;;;;2.83;2.35;;;17.30;56.90;;;;;;6155066;23;20207;-81
2023/12/03 04:56:33;;;;;;;2.85;2.28;;;17.30;57.00;;;;;;6045890;23;20152;-82
2023/12/03 04:59:06;;;;;;;3.47;2.40;;;17.20;56.90;;;;;;6035386;23;20572;-81
2023/12/03 05:01:37;;;;;;;3.33;2.30;;;17.30;57.00;;;;;;6065683;23;20164;-82
2023/12/03 05:04:03;;;;;;;3.28;2.40;;;17.30;56.80;;;;;;6040695;23;20609;-82
2023/12/03 05:06:40;;;;;;;3.63;2.38;;;17.30;57.00;;;;;;6041997;23;20149;-82
2023/12/03 05:09:15;;;;;;;5.13;2.70;;;17.30;56.90;;;;;;5980317;24;20231;-83
2023/12/03 05:11:44;;;;;;;4.45;2.40;;;17.20;57.10;;;;;;5936535;24;20191;-82
2023/12/03 05:14:15;;;;;;;2.78;2.10;;;17.20;57.00;;;;;;5931877;24;20247;-82
2023/12/03 05:16:44;;;;;;;3.08;2.22;;;17.20;57.10;;;;;;5900264;24;20153;-83
2023/12/03 05:19:14;;;;;;;3.47;2.30;;;17.30;57.10;;;;;;5900479;24;20163;-82
2023/12/03 05:21:43;;;;;;;3.35;2.20;;;17.20;57.00;;;;;;5899759;24;20297;-82
2023/12/03 05:24:31;;;;;;;3.55;2.30;;;17.30;56.80;;;;;;5923639;24;20164;-82
2023/12/03 05:27:03;;;;;;;3.42;2.58;;;17.30;56.90;;;;;;6049977;23;20184;-82
2023/12/03 05:29:43;;;;;;;3.72;2.40;;;17.30;57.00;;;;;;6069853;23;20137;-81
2023/12/03 05:32:22;;;;;;;;;;;;;;;;;;;;;
2023/12/03 05:35:05;;;;;;;3.22;2.30;;;17.30;56.90;;;;;;5910120;24;20238;-82
2023/12/03 05:43:03;;;;;;;3.47;2.42;;;17.20;57.00;;;;;;6182620;23;20225;-82
2023/12/03 05:45:54;;;;;;;5.82;2.60;;;17.20;57.10;;;;;;6134718;23;20151;-83
2023/12/03 05:48:21;;;;;;;3.22;2.10;;;17.20;57.00;;;;;;6137942;23;20147;-82
2023/12/03 05:51:10;;;;;;;2.60;2.10;;;17.20;57.00;;;;;;6068750;23;20181;-83
2023/12/03 05:53:45;;;;;;;3.05;2.35;;;17.20;57.00;;;;;;5949079;24;20271;-82
2023/12/03 05:59:52;;;;;;;2.80;2.10;;;17.10;57.00;;;;;;5933665;24;20238;-83
2023/12/03 06:03:00;;;;;;;2.83;2.38;;;17.20;57.00;;;;;;5943521;24;20160;-82
2023/12/03 06:06:07;;;;;;;3.15;2.35;;;17.20;56.80;;;;;;5880438;24;20158;-83
2023/12/03 06:09:02;;;;;;;3.08;2.40;;;17.20;56.80;;;;;;6169802;23;20210;-83
2023/12/03 06:11:54;;;;;;;3.22;2.30;;;17.20;57.50;;;;;;6139485;23;20508;-83
2023/12/03 06:14:29;;;;;;;2.85;2.22;;;17.20;56.90;;;;;;6068809;23;20225;-83
2023/12/03 06:17:52;;;;;;;2.53;2.30;;;17.20;57.00;;;;;;5962805;24;20158;-82
2023/12/03 06:20:27;;;;;;;3.60;2.10;;;17.20;57.10;;;;;;5853512;24;20166;-83
2023/12/03 06:23:06;;;;;;;3.38;2.67;;;17.20;57.10;;;;;;5772223;24;20167;-83
2023/12/03 06:29:22;;;;;;;3.40;2.08;;;17.20;57.00;;;;;;5641562;25;20199;-83
2023/12/03 06:31:48;;;;;;;2.80;2.10;;;17.20;56.80;;;;;;5641336;25;20198;-84
2023/12/03 06:34:15;;;;;;;4.15;2.22;;;17.20;56.90;;;;;;5639979;25;20588;-83
2023/12/03 06:36:41;;;;;;;3.10;2.17;;;17.20;56.70;;;;;;5638620;25;20168;-83
2023/12/03 06:39:10;;;;;;;2.90;2.15;;;17.20;56.80;;;;;;5637588;25;20160;-83
2023/12/03 06:41:36;;;;;;;3.10;2.25;;;17.30;56.80;;;;;;5637809;25;20218;-84
2023/12/03 06:44:02;;;;;;;8.50;2.45;;;17.20;56.80;;;;;;5596693;25;20172;-84
2023/12/03 06:46:28;;;;;;;4.45;2.67;;;17.20;56.80;;;;;;5618123;25;20188;-83
2023/12/03 06:49:10;;;;;;;3.65;2.35;;;17.20;56.90;;;;;;5600815;25;20164;-84
2023/12/03 06:55:29;;;;;;;6.75;2.17;;;17.20;56.80;;;;;;5846758;24;20159;-82
2023/12/03 06:57:58;;;;;;;8.20;2.40;;;17.30;56.40;;;;;;5940726;24;20227;-81
2023/12/03 07:00:24;;;;;;;6.10;2.60;;;17.30;56.10;;;;;;6025595;23;20658;-82
2023/12/03 07:02:58;;;;;;;7.18;2.42;;;17.30;56.00;;;;;;6085785;23;20167;-83
2023/12/03 07:05:25;;;;;;;5.78;2.25;;;17.40;56.20;;;;;;6081895;23;20202;-82
2023/12/03 07:08:10;;;;;;;5.82;2.08;;;17.30;56.10;;;;;;6107573;23;20207;-83
2023/12/03 07:10:58;;;;;;;3.70;2.38;;;17.40;56.10;;;;;;6091117;23;20273;-83
2023/12/03 07:13:38;;;;;;;7.57;2.45;;;17.30;56.40;;;;;;6139796;23;20196;-83
2023/12/03 07:16:15;;;;;;;4.07;2.38;;;17.30;56.30;;;;;;6086265;23;20207;-83
2023/12/03 07:18:42;;;;;;;3.92;2.50;;;17.40;56.40;;;;;;6084562;23;20155;-82
2023/12/03 07:21:52;;;;;;;3.17;2.40;;;17.40;56.60;;;;;;6110531;23;20215;-83
2023/12/03 07:27:16;;;;;;;4.47;2.38;;;17.30;56.60;;;;;;5948971;24;20628;-82
2023/12/03 07:29:52;;;;;;;7.30;2.10;;;17.30;56.90;;;;;;5974901;24;20151;-83
2023/12/03 07:32:25;;;;;;;4.55;2.28;;;17.30;56.90;;;;;;5989628;24;20546;-82
2023/12/03 07:35:04;;;;;;;;;;;;;;;;;;;;;
2023/12/03 07:37:32;;;;;;;8.18;2.50;;;17.60;56.70;;;;;;5910073;24;20187;-85
2023/12/03 07:40:02;;;;;;;5.53;2.50;;;17.60;56.30;;;;;;5939936;24;20147;-83
2023/12/03 07:43:12;;;;;;;7.30;2.53;;;17.50;56.20;;;;;;5910855;24;20311;-82
2023/12/03 07:45:48;;;;;;;;;;;;;;;;;;;;;
2023/12/03 07:48:24;;;;;;;3.28;2.17;;;17.50;56.30;;;;;;5718698;25;20747;-84
2023/12/03 07:50:51;;;;;;;7.05;2.40;;;17.60;56.10;;;;;;5742324;25;20271;-83
2023/12/03 07:58:25;;;;;;;;;;;;;;;;;;;;;
2023/12/03 08:01:23;;;;;;;2.58;2.20;;;17.80;56.10;;;;;;5518142;26;20186;-87
2023/12/03 08:22:14;;;;;;;5.95;2.42;;;18.30;55.00;;;;;;5550593;25;20314;-80
2023/12/03 08:28:30;;;;;;;4.72;2.13;;;18.30;54.50;;;;;;5691475;25;20170;-84
2023/12/03 08:31:06;;;;;;;;;;;;;;;;;;;;;
2023/12/03 08:33:33;;;;;;;5.53;2.00;;;18.50;54.10;;;;;;5662091;25;20193;-87
2023/12/03 08:36:02;;;;;;;4.57;2.10;;;18.40;54.70;;;;;;5691921;25;20485;-83
2023/12/03 08:59:14;;;;;;;5.18;2.30;;;18.60;54.00;;;;;;6162635;23;20209;-84
2023/12/03 09:01:42;;;;;;;7.22;2.10;;;18.60;53.00;;;;;;6163885;23;20139;-83
2023/12/03 09:04:12;;;;;;;10.45;2.05;;;18.80;53.80;;;;;;6138282;23;20717;-84
2023/12/03 09:06:39;;;;;;;3.45;1.92;;;18.80;53.00;;;;;;6075476;23;20274;-83
2023/12/03 09:09:26;;;;;;;3.03;2.05;;;18.80;52.80;;;;;;6100136;23;20218;-83
2023/12/03 09:12:43;;;;;;;2.47;1.85;;;18.80;53.00;;;;;;6045700;23;20198;-87
2023/12/03 09:16:07;;;;;;;5.55;2.50;;;18.80;53.40;;;;;;5906437;24;20189;-85
2023/12/03 09:18:37;;;;;;;4.45;2.08;;;18.80;53.90;;;;;;5795196;24;20164;-86
2023/12/03 09:22:18;;;;;;;8.88;2.50;;;18.80;53.70;;;;;;5756666;24;20187;-85
2023/12/03 09:24:41;;;;;;;8.23;2.00;;;18.80;53.60;;;;;;5672944;25;20183;-87
2023/12/03 09:31:21;;;;;;;13.18;2.50;;;18.90;52.60;;;;;;5618910;25;20220;-89
2023/12/03 09:37:03;;;;;;;8.85;2.55;;;18.80;53.90;;;;;;5537159;25;20177;-85
2023/12/03 09:40:14;;;;;;;;;;;;;;;;;;;;;
2023/12/03 09:42:41;;;;;;;6.15;2.35;;;18.90;53.40;;;;;;5496787;26;20308;-88
2023/12/03 09:46:13;;;;;;;;;;;;;;;;;;;;;
2023/12/03 09:56:35;;;;;;;13.68;3.03;;;18.80;52.90;;;;;;5636669;25;20632;-85
2023/12/03 10:02:31;;;;;;;;;;;;;;;;;;;;;
2023/12/03 10:05:07;;;;;;;10.65;2.30;;;19.00;52.30;;;;;;5593605;25;20257;-85
2023/12/03 10:07:56;;;;;;;12.68;2.67;;;19.10;51.30;;;;;;5588273;25;20206;-86
2023/12/03 10:11:02;;;;;;;;;;;;;;;;;;;;;
2023/12/03 10:13:53;;;;;;;7.03;2.33;;;19.10;51.60;;;;;;5637848;25;20158;-87
2023/12/03 10:16:23;;;;;;;9.55;2.60;;;19.10;50.90;;;;;;5694352;25;20388;-83
2023/12/03 15:47:30;;;;;;;15.82;3.75;;;19.90;52.20;;;;;;6161328;23;20190;31
2023/12/03 15:50:39;;;;;;;;;;;;;;;;;;;;;
2023/12/03 15:53:09;;;;;;;20.73;4.15;;;19.90;52.10;;;;;;6050696;23;20624;-85
2023/12/03 15:56:18;;;;;;;;;;;;;;;;;;;;;
2023/12/03 15:59:43;;;;;;;17.17;3.38;;;19.80;51.70;;;;;;5903250;24;20240;-83
2023/12/03 16:03:01;;;;;;;;;;;;;;;;;;;;;
2023/12/03 16:05:32;;;;;;;18.80;3.10;;;19.80;51.60;;;;;;5637061;25;20196;-82
2023/12/03 16:08:07;;;;;;;18.50;3.30;;;19.90;51.60;;;;;;5615496;25;20527;-85
2023/12/03 16:10:38;;;;;;;13.60;3.00;;;19.90;51.20;;;;;;5593739;25;20216;-85
2023/12/03 16:13:32;;;;;;;11.57;3.08;;;20.00;51.20;;;;;;5596013;25;20200;-85
2023/12/03 16:16:03;;;;;;;16.83;3.70;;;19.90;50.70;;;;;;5566329;25;20178;-86
2023/12/03 16:18:32;;;;;;;14.25;3.45;;;20.00;51.20;;;;;;5593490;25;20161;-83
2023/12/03 16:21:09;;;;;;;12.82;3.10;;;19.90;51.40;;;;;;5500837;26;20175;-87
2023/12/03 16:23:39;;;;;;;8.65;3.22;;;19.80;51.00;;;;;;5491545;26;20168;-84
2023/12/03 16:26:05;;;;;;;15.48;3.35;;;19.70;51.50;;;;;;5494972;26;20161;-83
2023/12/03 16:28:36;;;;;;;15.65;3.13;;;19.80;51.50;;;;;;5475160;26;20243;-84
2023/12/03 16:31:02;;;;;;;16.80;3.03;;;19.70;51.60;;;;;;5517314;25;20236;-82
2023/12/03 16:33:56;;;;;;;10.18;3.03;;;19.70;51.60;;;;;;5515950;26;20232;-85
2023/12/03 16:36:21;;;;;;;12.90;3.22;;;19.70;51.50;;;;;;5654919;25;20597;-83
2023/12/03 16:39:11;;;;;;;12.68;2.80;;;19.80;52.00;;;;;;5714327;24;20158;-83
2023/12/03 16:41:38;;;;;;;9.98;3.13;;;19.70;51.20;;;;;;5867038;24;20207;-82
2023/12/03 16:44:14;;;;;;;11.00;3.00;;;19.70;52.90;;;;;;5901921;24;20192;-82
2023/12/03 16:46:40;;;;;;;7.90;2.80;;;19.60;51.20;;;;;;5892173;24;20207;-82
2023/12/03 16:49:07;;;;;;;10.88;3.45;;;19.60;51.90;;;;;;5861626;24;20200;-82
2023/12/03 16:51:36;;;;;;;10.93;2.88;;;19.50;52.30;;;;;;5874315;24;20230;-84
2023/12/03 16:54:05;;;;;;;11.13;2.83;;;19.50;52.60;;;;;;5989433;23;20174;-86
2023/12/03 16:56:31;;;;;;;10.55;3.40;;;19.40;52.60;;;;;;6012920;23;20276;-84
2023/12/03 16:58:56;;;;;;;10.00;2.90;;;19.50;52.00;;;;;;5990125;23;20154;-82
2023/12/03 17:01:32;;;;;;;10.73;2.80;;;19.40;52.70;;;;;;6038648;23;20209;-85
2023/12/03 17:03:58;;;;;;;4.85;2.58;;;19.30;52.10;;;;;;6016473;23;20145;-82
2023/12/03 17:06:24;;;;;;;8.57;2.38;;;19.30;52.20;;;;;;6016284;23;20154;-83
2023/12/03 17:16:07;;;;;;;8.43;3.20;;;19.10;52.50;;;;;;5987587;23;20233;-83
2023/12/03 17:18:57;;;;;;;7.05;2.42;;;19.00;53.30;;;;;;5876276;24;20166;-84
2023/12/03 17:21:33;;;;;;;7.28;2.83;;;19.00;52.80;;;;;;5878385;24;20246;-84
2023/12/03 17:24:09;;;;;;;9.15;2.80;;;19.00;53.50;;;;;;5878299;24;20167;-83
2023/12/03 17:27:27;;;;;;;6.80;2.60;;;19.00;53.80;;;;;;5871278;24;20860;-83
2023/12/03 17:33:30;;;;;;;10.25;2.55;;;18.90;52.30;;;;;;5819352;24;20519;-89
2023/12/03 17:35:58;;;;;;;5.43;2.38;;;19.10;52.40;;;;;;5805948;24;20159;-83
2023/12/03 17:38:43;;;;;;;14.55;2.53;;;19.10;53.30;;;;;;5796840;24;20167;-83
2023/12/03 17:41:22;;;;;;;6.70;2.75;;;19.00;52.00;;;;;;5778671;24;20163;-85
2023/12/03 17:44:29;;;;;;;6.20;2.42;;;19.10;52.50;;;;;;5778063;24;20159;-84
2023/12/03 17:46:57;;;;;;;11.82;2.80;;;19.00;52.90;;;;;;5846410;24;20201;-84
2023/12/03 17:49:33;;;;;;;7.45;2.50;;;19.00;53.30;;;;;;5840594;24;20330;-84
2023/12/03 17:52:10;;;;;;;9.10;3.00;;;18.80;53.30;;;;;;5848651;24;20197;-84
2023/12/03 17:54:39;;;;;;;4.88;2.25;;;18.90;53.10;;;;;;5861314;24;20159;-82
2023/12/03 17:57:05;;;;;;;7.78;2.80;;;18.90;53.40;;;;;;5932436;24;20152;-84
2023/12/03 17:59:52;;;;;;;5.30;2.45;;;18.90;52.80;;;;;;5930024;24;20167;-84
2023/12/03 18:02:20;;;;;;;5.05;2.30;;;18.80;53.60;;;;;;5923316;24;20531;-84
2023/12/03 18:04:56;;;;;;;3.83;2.08;;;18.80;53.70;;;;;;6018178;23;20161;-85
2023/12/03 18:14:54;;;;;;;4.65;2.42;;;18.80;53.30;;;;;;6017635;23;20171;-84
2023/12/03 18:17:20;;;;;;;3.63;2.22;;;18.80;53.20;;;;;;6008405;23;20185;-83
2023/12/03 18:19:46;;;;;;;5.38;2.15;;;18.80;52.50;;;;;;5956283;24;20152;-84
2023/12/03 18:22:15;;;;;;;6.65;2.42;;;18.90;53.40;;;;;;6108480;23;20293;-83
2023/12/03 18:24:41;;;;;;;5.75;2.28;;;18.80;53.00;;;;;;6136140;23;20137;-83
2023/12/03 18:27:34;;;;;;;4.82;2.25;;;18.90;53.90;;;;;;6136019;23;20161;-84
2023/12/03 18:30:05;;;;;;;5.20;2.55;;;18.80;53.90;;;;;;6167209;23;20135;-83
2023/12/03 18:32:31;;;;;;;3.55;2.30;;;18.80;53.40;;;;;;6160605;23;20590;-83
2023/12/03 18:35:04;;;;;;;7.40;2.42;;;18.80;53.10;;;;;;6138430;23;20178;-86
2023/12/03 18:37:31;;;;;;;5.40;2.38;;;18.70;53.20;;;;;;6147360;23;20187;-86
2023/12/03 18:39:58;;;;;;;4.53;2.00;;;18.70;53.30;;;;;;6119629;23;20150;-88
2023/12/03 18:42:26;;;;;;;6.07;2.42;;;18.60;53.40;;;;;;6144726;23;20199;-86
2023/12/03 18:44:52;;;;;;;3.67;1.98;;;18.60;53.70;;;;;;6143052;23;20215;-89
2023/12/03 18:47:19;;;;;;;4.32;2.42;;;18.60;53.30;;;;;;6116099;23;20154;-90
2023/12/03 18:49:47;;;;;;;4.97;2.17;;;18.60;53.30;;;;;;6136192;23;20159;-90
2023/12/03 18:52:13;;;;;;;4.03;2.40;;;18.60;53.30;;;;;;6137155;23;20167;-87
2023/12/03 18:54:42;;;;;;;5.25;2.00;;;18.70;53.90;;;;;;6114739;23;20177;-87
2023/12/03 18:57:08;;;;;;;2.47;2.20;;;18.70;53.20;;;;;;6075520;23;20176;-89
2023/12/03 18:59:36;;;;;;;4.47;2.50;;;18.70;52.30;;;;;;5998807;23;20150;-87
2023/12/03 19:02:07;;;;;;;4.30;2.17;;;18.70;52.30;;;;;;5976393;23;20153;-88
2023/12/03 19:04:33;;;;;;;5.35;2.13;;;18.70;52.60;;;;;;5975775;23;20275;-88
2023/12/03 19:06:58;;;;;;;4.50;2.10;;;18.60;52.10;;;;;;5974336;23;20237;-89
2023/12/03 19:09:24;;;;;;;5.47;2.13;;;18.70;51.90;;;;;;5992526;23;20202;-89
2023/12/03 19:11:50;;;;;;;4.88;2.30;;;18.70;52.80;;;;;;5996582;23;20190;-89
2023/12/03 19:14:19;;;;;;;4.95;2.28;;;18.80;52.10;;;;;;5999917;23;20131;-88
2023/12/03 19:16:45;;;;;;;3.00;2.05;;;18.70;53.00;;;;;;6003209;23;20162;-88
2023/12/03 19:19:11;;;;;;;2.38;2.05;;;18.70;52.00;;;;;;5978483;23;20158;-88
2023/12/03 19:21:37;;;;;;;5.45;2.00;;;18.70;51.60;;;;;;5994220;23;20194;-88
2023/12/03 19:24:04;;;;;;;2.58;1.73;;;18.80;51.60;;;;;;5914292;24;20489;-87
2023/12/03 19:26:30;;;;;;;3.10;2.30;;;18.70;52.00;;;;;;5938052;24;20156;-87
2023/12/03 19:28:57;;;;;;;2.58;1.92;;;18.70;51.80;;;;;;5985045;24;20207;-87
2023/12/03 19:31:25;;;;;;;3.85;1.90;;;18.70;51.70;;;;;;5991404;24;20217;-89
2023/12/03 19:33:52;;;;;;;3.75;2.10;;;18.70;51.20;;;;;;5988833;24;20151;-86
2023/12/03 19:36:19;;;;;;;3.92;2.20;;;18.70;51.50;;;;;;6007770;23;20241;-87
2023/12/03 19:38:46;;;;;;;4.07;2.13;;;18.70;51.50;;;;;;6052719;23;20687;-87
2023/12/03 19:41:12;;;;;;;2.80;1.63;;;18.80;50.70;;;;;;6052643;23;20148;-88
2023/12/03 19:43:42;;;;;;;6.07;1.95;;;18.80;50.80;;;;;;6051154;23;20153;-89
2023/12/03 19:46:11;;;;;;;3.13;1.77;;;18.70;51.30;;;;;;6051886;23;20157;-87
2023/12/03 19:48:37;;;;;;;2.10;1.80;;;18.70;51.60;;;;;;6053682;23;20146;-86
2023/12/03 19:51:03;;;;;;;3.50;2.10;;;18.80;51.00;;;;;;6054611;23;20185;-86
2023/12/03 19:53:30;;;;;;;4.93;2.03;;;18.70;51.60;;;;;;6054487;23;20177;-87
2023/12/03 19:55:59;;;;;;;6.55;2.03;;;18.70;51.20;;;;;;6104354;23;20152;-87
2023/12/03 19:58:25;;;;;;;4.55;1.80;;;18.70;51.20;;;;;;6112015;23;20148;-87
2023/12/03 20:00:50;;;;;;;3.55;1.92;;;18.70;52.30;;;;;;6064471;23;20576;-88
2023/12/03 20:03:16;;;;;;;3.55;2.20;;;18.70;51.70;;;;;;6113528;23;20140;-87
2023/12/03 20:05:42;;;;;;;5.47;2.00;;;18.60;52.60;;;;;;6114929;23;20144;-88
2023/12/03 20:08:11;;;;;;;3.60;1.73;;;18.50;53.20;;;;;;6112379;23;20168;-88
2023/12/03 20:10:37;;;;;;;3.45;1.98;;;18.50;52.30;;;;;;6082484;23;20189;-87
2023/12/03 20:13:03;;;;;;;3.88;2.00;;;18.40;52.80;;;;;;6103263;23;20751;-88
2023/12/03 20:17:57;;;;;;;3.65;1.85;;;18.30;51.70;;;;;;6193298;23;20206;-88
2023/12/03 20:20:24;;;;;;;3.95;1.80;;;18.30;51.30;;;;;;6144825;23;20143;-88
2023/12/03 20:22:52;;;;;;;2.78;1.88;;;18.30;51.50;;;;;;6164695;23;20135;-87
2023/12/03 20:25:18;;;;;;;2.65;1.55;;;18.30;50.80;;;;;;6140004;23;20699;-88
2023/12/03 20:27:46;;;;;;;3.85;1.98;;;18.30;50.40;;;;;;6164467;23;20451;-88
2023/12/03 20:30:24;;;;;;;;;;;;;;;;;;;;;
2023/12/03 20:32:40;;;;;;;3.25;2.08;;;18.40;50.80;;;;;;6158300;23;20218;-87
2023/12/03 20:35:06;;;;;;;3.35;1.90;;;18.40;52.70;;;;;;6120556;23;20512;-86
2023/12/03 20:37:32;;;;;;;2.65;1.70;;;18.30;52.50;;;;;;6090883;23;20239;-86
2023/12/03 20:39:58;;;;;;;3.20;1.83;;;18.20;52.30;;;;;;6112323;23;20144;-87
2023/12/03 20:42:28;;;;;;;2.63;1.90;;;18.30;52.30;;;;;;6113741;23;20143;-87
2023/12/03 20:47:32;;;;;;;2.65;1.67;;;18.20;51.50;;;;;;6149624;23;20210;-88
2023/12/03 20:50:02;;;;;;;2.92;1.95;;;18.30;50.10;;;;;;6167604;23;20127;-88
2023/12/03 20:52:29;;;;;;;2.85;1.80;;;18.30;51.00;;;;;;6141561;23;20174;-88
2023/12/03 20:54:55;;;;;;;2.22;1.70;;;18.30;50.50;;;;;;6118938;23;20154;-88
2023/12/03 20:59:47;;;;;;;2.15;1.70;;;18.40;50.30;;;;;;6144541;23;20219;-87
2023/12/03 21:02:14;;;;;;;3.22;2.05;;;18.30;51.70;;;;;;6094225;23;20210;-87
2023/12/03 21:04:42;;;;;;;4.03;1.98;;;18.30;52.20;;;;;;6167618;23;20255;-88
2023/12/03 21:07:09;;;;;;;3.90;2.00;;;18.30;52.20;;;;;;6116321;23;20147;-88
2023/12/03 21:09:34;;;;;;;4.72;2.10;;;18.20;52.10;;;;;;6139399;23;20135;-87
2023/12/03 21:12:00;;;;;;;2.83;1.98;;;18.30;52.50;;;;;;6115864;23;20501;-88
2023/12/03 21:14:26;;;;;;;2.95;2.00;;;18.30;52.20;;;;;;6117212;23;20574;-88
2023/12/03 21:16:52;;;;;;;3.40;2.00;;;18.30;52.70;;;;;;6117710;23;20159;-88
2023/12/03 21:19:19;;;;;;;2.80;2.10;;;18.30;52.90;;;;;;6116642;23;20601;-87
2023/12/03 21:24:20;;;;;;;4.15;2.45;;;18.20;53.20;;;;;;6161838;23;20532;-89
2023/12/03 21:26:49;;;;;;;3.22;1.95;;;18.20;53.60;;;;;;6112175;23;20219;-88
2023/12/03 21:29:15;;;;;;;2.72;1.90;;;18.10;53.90;;;;;;6138824;23;20182;-88
2023/12/03 21:31:42;;;;;;;3.25;2.10;;;18.10;53.90;;;;;;6137675;23;20171;-88
2023/12/03 21:34:07;;;;;;;3.85;2.03;;;18.10;53.80;;;;;;6134395;23;20203;-87
2023/12/03 21:39:10;;;;;;;3.65;2.00;;;18.10;53.80;;;;;;6170229;23;20270;-90
2023/12/03 21:41:37;;;;;;;2.53;1.75;;;18.10;53.70;;;;;;6168127;23;20174;-88
2023/12/03 21:44:04;;;;;;;2.88;1.92;;;18.10;53.80;;;;;;6141427;23;20142;-88
2023/12/03 21:46:32;;;;;;;2.60;2.22;;;18.00;53.90;;;;;;6143022;23;20139;-87
2023/12/03 21:48:58;;;;;;;4.22;2.08;;;18.10;53.80;;;;;;6142522;23;20143;-88
2023/12/03 21:51:27;;;;;;;3.20;1.98;;;18.10;53.50;;;;;;6141842;23;20241;-88
2023/12/03 21:53:53;;;;;;;3.67;1.90;;;18.00;53.50;;;;;;6142426;23;20155;-87
2023/12/03 21:56:19;;;;;;;3.35;1.98;;;18.10;53.70;;;;;;6141260;23;20157;-89